createdAt,value
2023-11-10T00:00:38.175Z,99.99
2023-11-10T00:01:38.128Z,99.99
2023-11-10T00:02:38.148Z,99.99
2023-11-10T00:03:38.344Z,99.99
2023-11-10T00:04:38.225Z,99.99
2023-11-10T00:05:38.271Z,99.99
2023-11-10T00:06:38.086Z,99.99
2023-11-10T00:07:38.052Z,99.99
2023-11-10T00:08:38.036Z,99.99
2023-11-10T00:09:38.085Z,99.99
2023-11-10T00:10:38.018Z,99.99
2023-11-10T00:11:38.011Z,99.99
2023-11-10T00:12:38.061Z,99.99
2023-11-10T00:13:37.985Z,99.99
2023-11-10T00:14:40.115Z,99.99
2023-11-10T00:15:38.009Z,99.99
2023-11-10T00:16:37.949Z,99.99
2023-11-10T00:17:37.956Z,99.99
2023-11-10T00:18:37.931Z,99.99
2023-11-10T00:19:37.934Z,99.99
2023-11-10T00:20:37.906Z,99.99
2023-11-10T00:21:37.977Z,99.99
2023-11-10T00:22:37.877Z,99.99
2023-11-10T00:23:37.872Z,99.99
2023-11-10T00:24:37.882Z,99.99
2023-11-10T00:25:37.854Z,99.99
2023-11-10T00:26:37.835Z,99.99
2023-11-10T00:27:37.871Z,99.99
2023-11-10T00:28:37.806Z,99.99
2023-11-10T00:29:37.810Z,99.99
2023-11-10T00:30:37.830Z,99.99
2023-11-10T00:31:37.779Z,99.99
2023-11-10T00:32:37.918Z,99.99
2023-11-10T00:33:37.842Z,99.99
2023-11-10T00:34:37.736Z,99.99
2023-11-10T00:35:37.751Z,99.99
2023-11-10T00:36:37.759Z,99.99
2023-11-10T00:37:37.734Z,99.99
2023-11-10T00:38:37.701Z,99.99
2023-11-10T00:39:37.848Z,99.99
2023-11-10T00:40:37.692Z,99.99
2023-11-10T00:41:37.673Z,99.99
2023-11-10T00:42:37.670Z,99.99
2023-11-10T00:43:37.641Z,99.99
2023-11-10T00:44:37.644Z,99.99
2023-11-10T00:45:37.647Z,99.99
2023-11-10T00:46:37.652Z,99.99
2023-11-10T00:47:37.596Z,99.99
2023-11-10T00:48:37.685Z,99.99
2023-11-10T00:49:37.583Z,99.99
2023-11-10T00:50:37.561Z,99.99
2023-11-10T00:51:37.607Z,99.99
2023-11-10T00:52:37.535Z,99.99
2023-11-10T00:53:37.529Z,99.99
2023-11-10T00:54:37.566Z,99.99
2023-11-10T00:55:37.505Z,99.99
2023-11-10T00:56:37.499Z,99.99
2023-11-10T00:57:37.551Z,99.99
2023-11-10T00:58:37.471Z,99.99
2023-11-10T00:59:37.466Z,99.99
2023-11-10T01:00:37.485Z,99.99
2023-11-10T01:01:37.468Z,99.99
2023-11-10T01:02:37.554Z,99.99
2023-11-10T01:03:37.500Z,99.99
2023-11-10T01:04:37.452Z,99.99
2023-11-10T01:05:37.396Z,99.99
2023-11-10T01:06:37.479Z,99.99
2023-11-10T01:07:37.384Z,99.99
2023-11-10T01:08:37.367Z,99.99
2023-11-10T01:09:37.394Z,99.99
2023-11-10T01:10:37.357Z,99.99
2023-11-10T01:11:37.331Z,99.99
2023-11-10T01:12:37.337Z,99.99
2023-11-10T01:13:37.317Z,99.99
2023-11-10T01:14:37.296Z,99.99
2023-11-10T01:15:37.359Z,99.99
2023-11-10T01:16:37.314Z,99.99
2023-11-10T01:17:37.294Z,99.99
2023-11-10T01:18:37.279Z,99.99
2023-11-10T01:19:37.244Z,99.99
2023-11-10T01:20:37.222Z,99.99
2023-11-10T01:21:37.265Z,99.99
2023-11-10T01:22:37.236Z,99.99
2023-11-10T01:23:37.190Z,99.99
2023-11-10T01:24:37.217Z,99.99
2023-11-10T01:25:37.186Z,99.99
2023-11-10T01:26:37.173Z,99.99
2023-11-10T01:27:37.192Z,99.99
2023-11-10T01:28:37.133Z,99.99
2023-11-10T01:29:37.124Z,99.99
2023-11-10T01:30:37.157Z,99.99
2023-11-10T01:31:37.102Z,99.99
2023-11-10T01:32:37.123Z,99.99
2023-11-10T01:33:37.323Z,99.99
2023-11-10T01:34:37.066Z,99.99
2023-11-10T01:35:37.070Z,99.99
2023-11-10T01:36:37.113Z,99.99
2023-11-10T01:37:37.039Z,99.99
2023-11-10T01:38:37.034Z,99.99
2023-11-10T01:39:37.030Z,99.99
2023-11-10T01:40:36.998Z,99.99
2023-11-10T01:41:36.990Z,99.99
2023-11-10T01:42:36.995Z,99.99
2023-11-10T01:43:36.964Z,99.99
2023-11-10T01:44:36.953Z,99.99
2023-11-10T01:45:36.973Z,99.99
2023-11-10T01:46:37.054Z,99.99
2023-11-10T01:47:36.924Z,99.99
2023-11-10T01:48:37.036Z,99.99
2023-11-10T01:49:36.899Z,99.99
2023-11-10T01:50:36.917Z,99.99
2023-11-10T01:51:36.896Z,99.99
2023-11-10T01:52:36.857Z,99.99
2023-11-10T01:53:36.853Z,99.99
2023-11-10T01:54:36.861Z,99.99
2023-11-10T01:55:36.832Z,99.99
2023-11-10T01:56:36.825Z,99.99
2023-11-10T01:57:36.822Z,99.99
2023-11-10T01:58:36.795Z,99.99
2023-11-10T01:59:36.784Z,99.99
2023-11-10T02:00:36.840Z,99.99
2023-11-10T02:01:36.763Z,99.99
2023-11-10T02:02:36.860Z,99.99
2023-11-10T02:03:36.802Z,99.99
2023-11-10T02:04:36.756Z,99.99
2023-11-10T02:05:36.754Z,99.99
2023-11-10T02:06:36.762Z,99.99
2023-11-10T02:07:36.704Z,99.99
2023-11-10T02:08:36.685Z,99.99
2023-11-10T02:09:36.786Z,99.99
2023-11-10T02:10:36.659Z,99.99
2023-11-10T02:11:36.652Z,99.99
2023-11-10T02:12:36.667Z,99.99
2023-11-10T02:13:36.633Z,99.99
2023-11-10T02:14:36.688Z,99.99
2023-11-10T02:15:36.696Z,99.99
2023-11-10T02:16:36.675Z,99.99
2023-11-10T02:17:36.617Z,99.99
2023-11-10T02:18:36.598Z,99.99
2023-11-10T02:19:36.568Z,99.99
2023-11-10T02:20:36.548Z,99.99
2023-11-10T02:21:36.552Z,99.99
2023-11-10T02:22:36.519Z,99.99
2023-11-10T02:23:36.510Z,99.99
2023-11-10T02:24:36.508Z,99.99
2023-11-10T02:25:36.491Z,99.99
2023-11-10T02:26:36.475Z,99.99
2023-11-10T02:27:36.495Z,99.99
2023-11-10T02:28:36.455Z,99.99
2023-11-10T02:29:36.460Z,99.99
2023-11-10T02:30:36.450Z,99.99
2023-11-10T02:31:36.486Z,99.99
2023-11-10T02:32:36.442Z,99.99
2023-11-10T02:33:36.476Z,99.99
2023-11-10T02:34:36.442Z,99.99
2023-11-10T02:35:36.377Z,99.99
2023-11-10T02:36:36.393Z,99.99
2023-11-10T02:37:36.390Z,99.99
2023-11-10T02:38:36.336Z,99.99
2023-11-10T02:39:36.355Z,99.99
2023-11-10T02:40:36.312Z,99.99
2023-11-10T02:41:36.309Z,99.99
2023-11-10T02:42:36.413Z,99.99
2023-11-10T02:43:36.288Z,99.99
2023-11-10T02:44:36.270Z,99.99
2023-11-10T02:45:36.308Z,99.99
2023-11-10T02:46:36.289Z,99.99
2023-11-10T02:47:36.254Z,99.99
2023-11-10T02:48:36.242Z,99.99
2023-11-10T02:49:36.214Z,99.99
2023-11-10T02:50:36.208Z,99.99
2023-11-10T02:51:36.225Z,99.99
2023-11-10T02:52:36.179Z,99.99
2023-11-10T02:53:36.168Z,99.99
2023-11-10T02:54:36.200Z,99.99
2023-11-10T02:55:36.157Z,99.99
2023-11-10T02:56:36.144Z,99.99
2023-11-10T02:57:36.132Z,99.99
2023-11-10T02:58:36.113Z,99.99
2023-11-10T02:59:36.099Z,99.99
2023-11-10T03:00:36.114Z,99.99
2023-11-10T03:01:36.109Z,99.99
2023-11-10T03:02:36.079Z,99.99
2023-11-10T03:03:36.101Z,99.99
2023-11-10T03:04:36.067Z,99.99
2023-11-10T03:05:36.035Z,99.99
2023-11-10T03:06:36.058Z,99.99
2023-11-10T03:07:36.010Z,99.99
2023-11-10T03:08:36.010Z,99.99
2023-11-10T03:09:36.037Z,99.99
2023-11-10T03:10:35.979Z,99.99
2023-11-10T03:11:35.964Z,99.99
2023-11-10T03:12:36.006Z,99.99
2023-11-10T03:13:35.945Z,99.99
2023-11-10T03:14:35.933Z,99.99
2023-11-10T03:15:35.986Z,99.99
2023-11-10T03:16:35.907Z,99.99
2023-11-10T03:17:35.991Z,99.99
2023-11-10T03:18:35.941Z,99.99
2023-11-10T03:19:35.884Z,99.99
2023-11-10T03:20:35.866Z,99.99
2023-11-10T03:21:35.907Z,99.99
2023-11-10T03:22:35.879Z,99.99
2023-11-10T03:23:35.827Z,99.99
2023-11-10T03:24:35.884Z,99.99
2023-11-10T03:25:35.804Z,99.99
2023-11-10T03:26:35.805Z,99.99
2023-11-10T03:27:35.838Z,99.99
2023-11-10T03:28:35.774Z,99.99
2023-11-10T03:29:35.765Z,99.99
2023-11-10T03:30:35.787Z,99.99
2023-11-10T03:31:35.785Z,99.99
2023-11-10T03:32:35.760Z,99.99
2023-11-10T03:33:35.777Z,99.99
2023-11-10T03:34:35.713Z,99.99
2023-11-10T03:35:35.693Z,99.99
2023-11-10T03:36:35.735Z,99.99
2023-11-10T03:37:35.685Z,99.99
2023-11-10T03:38:35.667Z,99.99
2023-11-10T03:39:35.668Z,99.99
2023-11-10T03:40:35.648Z,99.99
2023-11-10T03:41:35.642Z,99.99
2023-11-10T03:42:35.681Z,99.99
2023-11-10T03:43:35.610Z,99.99
2023-11-10T03:44:35.606Z,99.99
2023-11-10T03:45:35.672Z,99.99
2023-11-10T03:46:35.638Z,99.99
2023-11-10T03:47:35.596Z,99.99
2023-11-10T03:48:35.579Z,99.99
2023-11-10T03:49:35.538Z,99.99
2023-11-10T03:50:35.539Z,99.99
2023-11-10T03:51:35.613Z,99.99
2023-11-10T03:52:35.510Z,99.99
2023-11-10T03:53:35.489Z,99.99
2023-11-10T03:54:35.581Z,99.99
2023-11-10T03:55:35.467Z,99.99
2023-11-10T03:56:35.474Z,99.99
2023-11-10T03:57:35.460Z,99.99
2023-11-10T03:58:35.435Z,99.99
2023-11-10T03:59:35.437Z,99.99
2023-11-10T04:00:42.257Z,99.99
2023-11-10T04:01:35.532Z,99.99
2023-11-10T04:02:35.421Z,99.99
2023-11-10T04:03:35.530Z,99.99
2023-11-10T04:04:35.434Z,99.99
2023-11-10T04:05:35.356Z,99.99
2023-11-10T04:06:40.309Z,99.99
2023-11-10T04:07:35.360Z,99.99
2023-11-10T04:08:35.332Z,99.99
2023-11-10T04:09:35.402Z,99.99
2023-11-10T04:10:35.314Z,99.99
2023-11-10T04:11:35.281Z,99.99
2023-11-10T04:12:35.295Z,99.99
2023-11-10T04:13:35.266Z,99.99
2023-11-10T04:14:35.266Z,99.99
2023-11-10T04:15:35.290Z,99.99
2023-11-10T04:16:35.265Z,99.99
2023-11-10T04:17:35.274Z,99.99
2023-11-10T04:18:35.244Z,99.99
2023-11-10T04:19:35.193Z,99.99
2023-11-10T04:20:35.225Z,99.99
2023-11-10T04:21:35.213Z,99.99
2023-11-10T04:22:35.166Z,99.99
2023-11-10T04:23:35.151Z,99.99
2023-11-10T04:24:35.216Z,99.99
2023-11-10T04:25:35.131Z,99.99
2023-11-10T04:26:35.127Z,99.99
2023-11-10T04:27:35.153Z,99.99
2023-11-10T04:28:35.096Z,99.99
2023-11-10T04:29:35.078Z,99.99
2023-11-10T04:30:35.117Z,99.99
2023-11-10T04:31:35.140Z,99.99
2023-11-10T04:32:45.562Z,99.99
2023-11-10T04:33:35.114Z,99.99
2023-11-10T04:34:35.031Z,99.99
2023-11-10T04:35:35.024Z,99.99
2023-11-10T04:36:35.046Z,99.99
2023-11-10T04:37:34.991Z,99.99
2023-11-10T04:38:34.988Z,99.99
2023-11-10T04:39:35.017Z,99.99
2023-11-10T04:40:34.957Z,99.99
2023-11-10T04:41:34.945Z,99.99
2023-11-10T04:42:35.035Z,99.99
2023-11-10T04:43:34.938Z,99.99
2023-11-10T04:44:34.921Z,99.99
2023-11-10T04:45:34.985Z,99.99
2023-11-10T04:46:34.948Z,99.99
2023-11-10T04:47:34.918Z,99.99
2023-11-10T04:48:34.930Z,99.99
2023-11-10T04:49:34.862Z,99.99
2023-11-10T04:50:35.957Z,99.99
2023-11-10T04:51:34.849Z,99.99
2023-11-10T04:52:34.825Z,99.99
2023-11-10T04:53:34.808Z,99.99
2023-11-10T04:54:34.854Z,99.99
2023-11-10T04:55:34.796Z,99.99
2023-11-10T04:56:34.805Z,99.99
2023-11-10T04:57:34.838Z,99.99
2023-11-10T04:58:34.764Z,99.99
2023-11-10T04:59:34.737Z,99.99
2023-11-10T05:00:34.801Z,99.99
2023-11-10T05:01:34.734Z,99.99
2023-11-10T05:02:34.784Z,99.99
2023-11-10T05:03:34.820Z,99.99
2023-11-10T05:04:34.727Z,99.99
2023-11-10T05:05:34.676Z,99.99
2023-11-10T05:06:34.709Z,99.99
2023-11-10T05:07:34.663Z,99.99
2023-11-10T05:08:34.658Z,99.99
2023-11-10T05:09:34.665Z,99.99
2023-11-10T05:10:34.628Z,99.99
2023-11-10T05:11:34.632Z,99.99
2023-11-10T05:12:35.321Z,99.99
2023-11-10T05:13:35.301Z,99.99
2023-11-10T05:14:35.807Z,99.99
2023-11-10T05:15:35.367Z,99.99
2023-11-10T05:16:34.948Z,99.99
2023-11-10T05:17:35.048Z,99.99
2023-11-10T05:19:34.624Z,99.99
2023-11-10T05:20:34.584Z,99.99
2023-11-10T05:21:35.311Z,99.99
2023-11-10T05:22:34.657Z,99.99
2023-11-10T05:23:34.473Z,99.99
2023-11-10T05:24:34.479Z,99.99
2023-11-10T05:25:34.474Z,99.99
2023-11-10T05:26:34.914Z,99.99
2023-11-10T05:27:34.784Z,99.99
2023-11-10T05:28:34.699Z,99.99
2023-11-10T05:29:35.068Z,99.99
2023-11-10T05:30:34.453Z,99.99
2023-11-10T05:31:34.409Z,99.99
2023-11-10T05:32:34.403Z,99.99
2023-11-10T05:33:34.390Z,99.99
2023-11-10T05:34:34.357Z,99.99
2023-11-10T05:35:34.355Z,99.99
2023-11-10T05:36:34.385Z,99.99
2023-11-10T05:37:34.319Z,99.99
2023-11-10T05:38:34.353Z,99.99
2023-11-10T05:39:35.004Z,99.99
2023-11-10T05:40:34.291Z,99.99
2023-11-10T05:41:34.268Z,99.99
2023-11-10T05:42:34.331Z,99.99
2023-11-10T05:43:34.246Z,99.99
2023-11-10T05:44:34.257Z,99.99
2023-11-10T05:45:34.576Z,99.99
2023-11-10T05:46:34.250Z,99.99
2023-11-10T05:47:34.208Z,99.99
2023-11-10T05:48:34.340Z,99.99
2023-11-10T05:49:34.658Z,99.99
2023-11-10T05:50:34.202Z,99.99
2023-11-10T05:51:34.540Z,99.99
2023-11-10T05:52:35.400Z,99.99
2023-11-10T05:53:34.300Z,99.99
2023-11-10T05:54:34.229Z,99.99
2023-11-10T05:55:34.113Z,99.99
2023-11-10T05:56:34.108Z,99.99
2023-11-10T05:57:34.367Z,99.99
2023-11-10T05:58:34.118Z,99.99
2023-11-10T05:59:34.276Z,99.99
2023-11-10T06:00:34.115Z,99.99
2023-11-10T06:01:34.080Z,99.99
2023-11-10T06:02:34.473Z,99.99
2023-11-10T06:03:34.311Z,99.99
2023-11-10T06:04:35.947Z,99.99
2023-11-10T06:05:33.998Z,99.99
2023-11-10T06:06:34.004Z,99.99
2023-11-10T06:07:34.010Z,99.99
2023-11-10T06:08:33.992Z,99.99
2023-11-10T06:09:34.046Z,99.99
2023-11-10T06:10:34.446Z,99.99
2023-11-10T06:11:45.846Z,99.99
2023-11-10T06:12:34.288Z,99.99
2023-11-10T06:13:34.561Z,99.99
2023-11-10T06:14:34.656Z,99.99
2023-11-10T06:15:34.230Z,99.99
2023-11-10T06:16:33.948Z,99.99
2023-11-10T06:17:34.671Z,99.99
2023-11-10T06:18:34.339Z,99.99
2023-11-10T06:19:33.883Z,99.99
2023-11-10T06:20:33.847Z,99.99
2023-11-10T06:21:33.863Z,99.99
2023-11-10T06:22:33.901Z,99.99
2023-11-10T06:23:33.907Z,99.99
2023-11-10T06:24:33.812Z,99.99
2023-11-10T06:25:33.809Z,99.99
2023-11-10T06:26:34.003Z,99.99
2023-11-10T06:27:33.788Z,99.99
2023-11-10T06:28:33.748Z,99.99
2023-11-10T06:29:33.743Z,99.99
2023-11-10T06:30:33.747Z,99.99
2023-11-10T06:31:33.721Z,99.99
2023-11-10T06:32:33.729Z,99.99
2023-11-10T06:33:33.724Z,99.99
2023-11-10T06:34:33.677Z,99.99
2023-11-10T06:35:33.658Z,99.99
2023-11-10T06:36:33.659Z,99.99
2023-11-10T06:37:33.630Z,99.99
2023-11-10T06:38:34.250Z,99.99
2023-11-10T06:39:33.622Z,99.99
2023-11-10T06:40:33.599Z,99.99
2023-11-10T06:41:33.682Z,99.99
2023-11-10T06:42:33.605Z,99.99
2023-11-10T06:43:33.630Z,99.99
2023-11-10T06:44:33.559Z,99.99
2023-11-10T06:45:33.577Z,99.99
2023-11-10T06:46:33.593Z,99.99
2023-11-10T06:47:33.589Z,99.99
2023-11-10T06:48:33.589Z,99.99
2023-11-10T06:49:33.502Z,99.99
2023-11-10T06:50:33.491Z,99.99
2023-11-10T06:51:33.495Z,99.99
2023-11-10T06:52:33.465Z,99.99
2023-11-10T06:53:33.451Z,99.99
2023-11-10T06:54:33.487Z,99.99
2023-11-10T06:55:33.504Z,99.99
2023-11-10T06:56:33.421Z,99.99
2023-11-10T06:57:34.091Z,99.99
2023-11-10T06:58:33.392Z,99.99
2023-11-10T06:59:33.413Z,99.99
2023-11-10T07:00:33.439Z,99.99
2023-11-10T07:01:33.370Z,99.99
2023-11-10T07:02:33.353Z,99.99
2023-11-10T07:03:33.445Z,99.99
2023-11-10T07:04:33.426Z,99.99
2023-11-10T07:05:33.331Z,99.99
2023-11-10T07:06:33.447Z,99.99
2023-11-10T07:07:33.296Z,99.99
2023-11-10T07:08:33.296Z,99.99
2023-11-10T07:09:33.277Z,99.99
2023-11-10T07:10:33.272Z,99.99
2023-11-10T07:11:33.245Z,99.99
2023-11-10T07:12:33.242Z,99.99
2023-11-10T07:13:33.227Z,99.99
2023-11-10T07:14:33.223Z,99.99
2023-11-10T07:15:33.217Z,99.99
2023-11-10T07:16:33.275Z,99.99
2023-11-10T07:17:33.218Z,99.99
2023-11-10T07:18:33.198Z,99.99
2023-11-10T07:19:33.174Z,99.99
2023-11-10T07:20:33.154Z,99.99
2023-11-10T07:21:33.199Z,99.99
2023-11-10T07:22:33.123Z,99.99
2023-11-10T07:23:33.113Z,99.99
2023-11-10T07:24:33.171Z,99.99
2023-11-10T07:25:33.090Z,99.99
2023-11-10T07:26:33.077Z,99.99
2023-11-10T07:27:33.124Z,99.99
2023-11-10T07:28:33.059Z,99.99
2023-11-10T07:29:33.062Z,99.99
2023-11-10T07:30:33.121Z,99.99
2023-11-10T07:31:33.086Z,99.99
2023-11-10T07:32:33.042Z,99.99
2023-11-10T07:33:33.071Z,99.99
2023-11-10T07:34:33.044Z,99.99
2023-11-10T07:35:33.101Z,99.99
2023-11-10T07:36:33.072Z,99.99
2023-11-10T07:37:33.388Z,99.99
2023-11-10T07:38:32.974Z,99.99
2023-11-10T07:39:32.989Z,99.99
2023-11-10T07:40:33.020Z,99.99
2023-11-10T07:41:32.915Z,99.99
2023-11-10T07:42:32.986Z,99.99
2023-11-10T07:43:32.899Z,99.99
2023-11-10T07:44:32.877Z,99.99
2023-11-10T07:45:32.925Z,99.99
2023-11-10T07:46:32.905Z,99.99
2023-11-10T07:47:32.852Z,99.99
2023-11-10T07:48:32.858Z,99.99
2023-11-10T07:49:32.845Z,99.99
2023-11-10T07:50:32.814Z,99.99
2023-11-10T07:51:32.870Z,99.99
2023-11-10T07:52:32.789Z,99.99
2023-11-10T07:53:32.804Z,99.99
2023-11-10T07:54:32.775Z,99.99
2023-11-10T07:55:32.772Z,99.99
2023-11-10T07:56:32.740Z,99.99
2023-11-10T07:57:32.741Z,99.99
2023-11-10T07:58:32.729Z,99.99
2023-11-10T07:59:32.750Z,99.99
2023-11-10T08:00:32.850Z,99.99
2023-11-10T08:01:33.128Z,99.99
2023-11-10T08:02:32.817Z,99.99
2023-11-10T08:03:33.748Z,99.99
2023-11-10T08:04:32.832Z,99.99
2023-11-10T08:05:32.803Z,99.99
2023-11-10T08:06:32.789Z,99.99
2023-11-10T08:07:32.750Z,99.99
2023-11-10T08:08:32.651Z,99.99
2023-11-10T08:09:32.643Z,99.99
2023-11-10T08:10:32.680Z,99.99
2023-11-10T08:11:39.230Z,99.99
2023-11-10T08:12:33.537Z,99.99
2023-11-10T08:13:32.940Z,99.99
2023-11-10T08:14:32.590Z,99.99
2023-11-10T08:15:32.659Z,99.99
2023-11-10T08:16:32.636Z,99.99
2023-11-10T08:17:32.696Z,99.99
2023-11-10T08:18:32.670Z,99.99
2023-11-10T08:19:32.585Z,99.99
2023-11-10T08:20:32.554Z,99.99
2023-11-10T08:21:33.072Z,99.99
2023-11-10T08:22:32.522Z,99.99
2023-11-10T08:23:32.558Z,99.99
2023-11-10T08:24:32.534Z,99.99
2023-11-10T08:25:32.512Z,99.99
2023-11-10T08:26:32.475Z,99.99
2023-11-10T08:27:32.568Z,99.99
2023-11-10T08:28:32.472Z,99.99
2023-11-10T08:29:32.469Z,99.99
2023-11-10T08:30:32.482Z,99.99
2023-11-10T08:31:32.431Z,99.99
2023-11-10T08:32:33.271Z,99.99
2023-11-10T08:33:32.419Z,99.99
2023-11-10T08:34:33.232Z,99.99
2023-11-10T08:35:32.458Z,99.99
2023-11-10T08:36:32.394Z,99.99
2023-11-10T08:37:32.324Z,99.99
2023-11-10T08:38:32.733Z,99.99
2023-11-10T08:39:32.354Z,99.99
2023-11-10T08:40:35.413Z,99.99
2023-11-10T08:41:32.368Z,99.99
2023-11-10T08:42:32.474Z,99.99
2023-11-10T08:43:32.333Z,99.99
2023-11-10T08:44:32.210Z,99.99
2023-11-10T08:45:32.313Z,99.99
2023-11-10T08:46:32.234Z,99.99
2023-11-10T08:47:32.250Z,99.99
2023-11-10T08:48:33.228Z,99.99
2023-11-10T08:49:32.285Z,99.99
2023-11-10T08:50:32.201Z,99.99
2023-11-10T08:51:32.171Z,99.99
2023-11-10T08:52:32.153Z,99.99
2023-11-10T08:53:32.160Z,99.99
2023-11-10T08:54:32.164Z,99.99
2023-11-10T08:55:32.138Z,99.99
2023-11-10T08:56:32.145Z,99.99
2023-11-10T08:57:32.198Z,99.99
2023-11-10T08:58:32.138Z,99.99
2023-11-10T08:59:32.160Z,99.99
2023-11-10T09:00:32.121Z,99.99
2023-11-10T09:01:32.832Z,99.99
2023-11-10T09:02:32.130Z,99.99
2023-11-10T09:03:32.144Z,99.99
2023-11-10T09:04:32.181Z,99.99
2023-11-10T09:05:32.042Z,99.99
2023-11-10T09:06:32.108Z,99.99
2023-11-10T09:07:32.004Z,99.99
2023-11-10T09:08:32.025Z,99.99
2023-11-10T09:09:32.033Z,99.99
2023-11-10T09:10:31.952Z,99.99
2023-11-10T09:11:31.992Z,99.99
2023-11-10T09:12:32.018Z,99.99
2023-11-10T09:13:31.927Z,99.99
2023-11-10T09:14:31.983Z,99.99
2023-11-10T09:15:32.313Z,99.99
2023-11-10T09:16:31.940Z,99.99
2023-11-10T09:17:31.961Z,99.99
2023-11-10T09:18:31.901Z,99.99
2023-11-10T09:19:31.878Z,99.99
2023-11-10T09:20:31.847Z,99.99
2023-11-10T09:21:32.393Z,99.99
2023-11-10T09:22:31.824Z,99.99
2023-11-10T09:23:31.918Z,99.99
2023-11-10T09:24:31.861Z,99.99
2023-11-10T09:25:31.863Z,99.99
2023-11-10T09:26:31.788Z,99.99
2023-11-10T09:27:31.915Z,99.99
2023-11-10T09:28:31.735Z,99.99
2023-11-10T09:29:31.696Z,99.99
2023-11-10T09:30:31.765Z,99.99
2023-11-10T09:31:31.750Z,99.99
2023-11-10T09:32:31.736Z,99.99
2023-11-10T09:33:31.737Z,99.99
2023-11-10T09:34:31.725Z,99.99
2023-11-10T09:35:32.098Z,99.99
2023-11-10T09:36:31.691Z,99.99
2023-11-10T09:37:31.682Z,99.99
2023-11-10T09:38:31.600Z,99.99
2023-11-10T09:39:31.687Z,99.99
2023-11-10T09:40:31.655Z,99.99
2023-11-10T09:41:31.573Z,99.99
2023-11-10T09:42:31.681Z,99.99
2023-11-10T09:43:31.610Z,99.99
2023-11-10T09:44:31.553Z,99.99
2023-11-10T09:45:31.665Z,99.99
2023-11-10T09:46:31.609Z,99.99
2023-11-10T09:47:31.608Z,99.99
2023-11-10T09:48:31.750Z,99.99
2023-11-10T09:49:31.462Z,99.99
2023-11-10T09:50:31.461Z,99.99
2023-11-10T09:51:31.547Z,99.99
2023-11-10T09:52:31.464Z,99.99
2023-11-10T09:53:31.412Z,99.99
2023-11-10T09:54:31.548Z,99.99
2023-11-10T09:55:31.474Z,99.99
2023-11-10T09:56:31.471Z,99.99
2023-11-10T09:58:31.681Z,99.99
2023-11-10T09:59:31.417Z,99.99
2023-11-10T10:00:31.451Z,99.99
2023-11-10T10:01:31.427Z,99.99
2023-11-10T10:02:32.005Z,99.99
2023-11-10T10:03:31.593Z,99.99
2023-11-10T10:04:31.437Z,99.99
2023-11-10T10:05:31.340Z,99.99
2023-11-10T10:06:31.338Z,99.99
2023-11-10T10:07:31.281Z,99.99
2023-11-10T10:08:31.322Z,99.99
2023-11-10T10:09:31.331Z,99.99
2023-11-10T10:10:31.288Z,99.99
2023-11-10T10:11:31.209Z,99.99
2023-11-10T10:12:31.276Z,99.99
2023-11-10T10:13:31.328Z,99.99
2023-11-10T10:14:31.228Z,99.99
2023-11-10T10:15:31.628Z,99.99
2023-11-10T10:16:31.285Z,99.99
2023-11-10T10:17:31.240Z,99.99
2023-11-10T10:18:31.193Z,99.99
2023-11-10T10:19:31.176Z,99.99
2023-11-10T10:20:31.206Z,99.99
2023-11-10T10:21:31.129Z,99.99
2023-11-10T10:22:31.122Z,99.99
2023-11-10T10:23:31.092Z,99.99
2023-11-10T10:24:31.139Z,99.99
2023-11-10T10:25:31.063Z,99.99
2023-11-10T10:26:31.258Z,99.99
2023-11-10T10:27:31.065Z,99.99
2023-11-10T10:28:31.528Z,99.00
2023-11-10T10:29:31.018Z,97.45
2023-11-10T10:30:31.096Z,97.45
2023-11-10T10:31:31.027Z,98.90
2023-11-10T10:32:33.320Z,98.96
2023-11-10T10:33:31.083Z,98.85
2023-11-10T10:34:31.148Z,99.05
2023-11-10T10:35:30.935Z,98.28
2023-11-10T10:36:30.956Z,99.72
2023-11-10T10:37:30.951Z,98.07
2023-11-10T10:38:30.918Z,95.92
2023-11-10T10:39:30.980Z,96.94
2023-11-10T10:40:30.945Z,98.07
2023-11-10T10:41:30.921Z,98.38
2023-11-10T10:42:30.874Z,99.21
2023-11-10T10:43:33.511Z,99.21
2023-11-10T10:44:30.897Z,98.18
2023-11-10T10:45:33.293Z,97.87
2023-11-10T10:46:30.884Z,97.62
2023-11-10T10:47:30.830Z,96.18
2023-11-10T10:48:30.843Z,96.18
2023-11-10T10:49:30.852Z,95.61
2023-11-10T10:50:30.777Z,96.02
2023-11-10T10:51:30.890Z,97.25
2023-11-10T10:52:30.771Z,97.45
2023-11-10T10:53:30.791Z,96.94
2023-11-10T10:54:30.885Z,96.64
2023-11-10T10:55:30.714Z,97.15
2023-11-10T10:56:38.715Z,98.44
2023-11-10T10:57:30.768Z,97.72
2023-11-10T10:58:30.672Z,96.28
2023-11-10T10:59:30.746Z,96.48
2023-11-10T11:00:30.708Z,92.48
2023-11-10T11:01:30.697Z,92.17
2023-11-10T11:02:30.725Z,95.46
2023-11-10T11:03:30.659Z,95.56
2023-11-10T11:04:30.984Z,96.08
2023-11-10T11:05:30.595Z,93.82
2023-11-10T11:06:30.644Z,94.02
2023-11-10T11:07:30.587Z,93.92
2023-11-10T11:08:30.567Z,94.12
2023-11-10T11:09:30.593Z,94.80
2023-11-10T11:10:30.545Z,94.49
2023-11-10T11:11:30.545Z,95.93
2023-11-10T11:12:30.563Z,95.10
2023-11-10T11:13:30.666Z,92.44
2023-11-10T11:14:33.536Z,91.27
2023-11-10T11:15:30.599Z,91.37
2023-11-10T11:16:30.558Z,90.95
2023-11-10T11:17:30.468Z,91.42
2023-11-10T11:18:30.558Z,89.83
2023-11-10T11:19:30.488Z,87.88
2023-11-10T11:20:30.528Z,89.83
2023-11-10T11:21:30.545Z,88.80
2023-11-10T11:22:30.440Z,89.37
2023-11-10T11:23:30.427Z,91.27
2023-11-10T11:24:30.483Z,92.60
2023-11-10T11:25:30.365Z,90.65
2023-11-10T11:26:30.362Z,87.57
2023-11-10T11:27:30.397Z,91.37
2023-11-10T11:28:30.408Z,90.65
2023-11-10T11:29:30.425Z,91.27
2023-11-10T11:30:30.454Z,91.06
2023-11-10T11:31:30.460Z,91.57
2023-11-10T11:32:30.370Z,89.62
2023-11-10T11:33:30.427Z,90.44
2023-11-10T11:34:30.306Z,88.59
2023-11-10T11:35:30.339Z,89.31
2023-11-10T11:36:30.354Z,89.42
2023-11-10T11:37:30.269Z,88.90
2023-11-10T11:38:31.648Z,89.04
2023-11-10T11:39:30.306Z,89.97
2023-11-10T11:40:30.235Z,90.18
2023-11-10T11:41:30.301Z,91.72
2023-11-10T11:42:30.250Z,91.82
2023-11-10T11:43:30.197Z,90.69
2023-11-10T11:44:30.163Z,88.02
2023-11-10T11:45:30.212Z,89.01
2023-11-10T11:46:30.188Z,89.62
2023-11-10T11:47:30.166Z,88.29
2023-11-10T11:48:30.158Z,87.63
2023-11-10T11:49:30.129Z,89.89
2023-11-10T11:50:30.087Z,90.46
2023-11-10T11:51:30.239Z,88.82
2023-11-10T11:52:30.139Z,83.94
2023-11-10T11:53:30.072Z,85.17
2023-11-10T11:54:30.100Z,85.47
2023-11-10T11:55:30.119Z,85.06
2023-11-10T11:56:30.058Z,86.81
2023-11-10T11:57:30.078Z,87.73
2023-11-10T11:58:30.080Z,88.08
2023-11-10T11:59:30.032Z,85.62
2023-11-10T12:00:30.056Z,87.37
2023-11-10T12:01:29.982Z,87.16
2023-11-10T12:02:29.992Z,87.46
2023-11-10T12:03:30.008Z,87.20
2023-11-10T12:04:30.072Z,87.30
2023-11-10T12:05:29.945Z,85.21
2023-11-10T12:06:29.911Z,88.08
2023-11-10T12:07:30.746Z,88.29
2023-11-10T12:08:29.877Z,87.37
2023-11-10T12:09:29.922Z,85.21
2023-11-10T12:10:29.867Z,87.16
2023-11-10T12:11:29.845Z,85.72
2023-11-10T12:12:29.836Z,85.93
2023-11-10T12:13:29.866Z,86.13
2023-11-10T12:14:29.916Z,86.44
2023-11-10T12:15:29.897Z,85.52
2023-11-10T12:17:29.861Z,84.39
2023-11-10T12:18:29.911Z,85.47
2023-11-10T12:19:29.769Z,87.12
2023-11-10T12:20:29.811Z,85.78
2023-11-10T12:21:29.772Z,85.17
2023-11-10T12:22:29.830Z,85.99
2023-11-10T12:23:29.759Z,85.38
2023-11-10T12:24:29.780Z,82.91
2023-11-10T12:25:29.745Z,83.63
2023-11-10T12:26:29.747Z,84.25
2023-11-10T12:27:29.725Z,83.32
2023-11-10T12:28:29.688Z,82.77
2023-11-10T12:29:30.145Z,85.54
2023-11-10T12:30:29.683Z,86.22
2023-11-10T12:31:29.707Z,83.96
2023-11-10T12:32:29.678Z,83.04
2023-11-10T12:33:29.689Z,82.63
2023-11-10T12:34:29.669Z,82.83
2023-11-10T12:35:29.577Z,82.53
2023-11-10T12:36:31.196Z,83.86
2023-11-10T12:37:29.548Z,85.71
2023-11-10T12:38:29.559Z,85.39
2023-11-10T12:39:29.550Z,81.60
2023-11-10T12:40:29.527Z,82.93
2023-11-10T12:41:29.503Z,82.93
2023-11-10T12:42:30.524Z,84.47
2023-11-10T12:43:29.483Z,84.74
2023-11-10T12:44:29.514Z,85.25
2023-11-10T12:45:29.484Z,83.61
2023-11-10T12:46:29.491Z,81.57
2023-11-10T12:47:29.444Z,83.20
2023-11-10T12:48:32.066Z,83.51
2023-11-10T12:49:29.426Z,84.84
2023-11-10T12:50:29.416Z,83.92
2023-11-10T12:51:30.452Z,85.50
2023-11-10T12:52:29.399Z,83.55
2023-11-10T12:53:29.372Z,81.74
2023-11-10T12:54:29.431Z,84.00
2023-11-10T12:55:29.354Z,82.36